sensor_id;sensor_type;location;lat;lon;timestamp;P1;durP1;ratioP1;P2;durP2;ratioP2
70715;SDS011;59053;50.832;12.882;2022-09-29T00:01:11;10.10;;;4.17;;
70715;SDS011;59053;50.832;12.882;2022-09-29T00:03:37;11.40;;;4.23;;
70715;SDS011;59053;50.832;12.882;2022-09-29T00:06:03;11.48;;;4.22;;
70715;SDS011;59053;50.832;12.882;2022-09-29T00:08:29;9.87;;;4.23;;
70715;SDS011;59053;50.832;12.882;2022-09-29T00:10:55;11.02;;;4.18;;
70715;SDS011;59053;50.832;12.882;2022-09-29T00:13:20;11.30;;;4.30;;
70715;SDS011;59053;50.832;12.882;2022-09-29T00:18:54;11.25;;;4.00;;
70715;SDS011;59053;50.832;12.882;2022-09-29T00:21:20;9.60;;;3.87;;
70715;SDS011;59053;50.832;12.882;2022-09-29T00:26:53;10.95;;;4.10;;
70715;SDS011;59053;50.832;12.882;2022-09-29T00:29:19;9.87;;;4.10;;
70715;SDS011;59053;50.832;12.882;2022-09-29T00:31:44;10.33;;;4.00;;
70715;SDS011;59053;50.832;12.882;2022-09-29T00:34:10;9.60;;;3.73;;
70715;SDS011;59053;50.832;12.882;2022-09-29T00:36:35;10.50;;;4.00;;
70715;SDS011;59053;50.832;12.882;2022-09-29T00:39:02;8.53;;;3.70;;
70715;SDS011;59053;50.832;12.882;2022-09-29T00:41:29;10.05;;;4.10;;
70715;SDS011;59053;50.832;12.882;2022-09-29T00:44:02;9.00;;;3.53;;
70715;SDS011;59053;50.832;12.882;2022-09-29T00:52:03;9.20;;;3.50;;
70715;SDS011;59053;50.832;12.882;2022-09-29T00:54:31;10.00;;;3.83;;
70715;SDS011;59053;50.832;12.882;2022-09-29T00:56:57;9.60;;;4.00;;
70715;SDS011;59053;50.832;12.882;2022-09-29T00:59:24;11.30;;;4.22;;
70715;SDS011;59053;50.832;12.882;2022-09-29T01:01:52;9.93;;;3.97;;
70715;SDS011;59053;50.832;12.882;2022-09-29T01:04:17;9.47;;;4.10;;
70715;SDS011;59053;50.832;12.882;2022-09-29T01:06:54;12.32;;;3.65;;
70715;SDS011;59053;50.832;12.882;2022-09-29T01:12:22;10.87;;;3.93;;
70715;SDS011;59053;50.832;12.882;2022-09-29T01:14:48;11.77;;;3.80;;
70715;SDS011;59053;50.832;12.882;2022-09-29T01:17:13;10.77;;;4.00;;
70715;SDS011;59053;50.832;12.882;2022-09-29T01:22:08;10.33;;;3.87;;
70715;SDS011;59053;50.832;12.882;2022-09-29T01:24:47;12.07;;;4.23;;
70715;SDS011;59053;50.832;12.882;2022-09-29T01:32:51;12.23;;;4.30;;
70715;SDS011;59053;50.832;12.882;2022-09-29T01:35:26;10.18;;;4.07;;
70715;SDS011;59053;50.832;12.882;2022-09-29T01:43:36;10.97;;;4.50;;
70715;SDS011;59053;50.832;12.882;2022-09-29T01:45:40;10.65;;;4.57;;
70715;SDS011;59053;50.832;12.882;2022-09-29T01:48:08;10.88;;;4.00;;
70715;SDS011;59053;50.832;12.882;2022-09-29T01:50:36;11.27;;;4.43;;
70715;SDS011;59053;50.832;12.882;2022-09-29T01:53:06;10.43;;;4.18;;
70715;SDS011;59053;50.832;12.882;2022-09-29T01:55:32;13.60;;;4.70;;
70715;SDS011;59053;50.832;12.882;2022-09-29T01:58:01;12.27;;;4.57;;
70715;SDS011;59053;50.832;12.882;2022-09-29T02:00:28;10.95;;;4.05;;
70715;SDS011;59053;50.832;12.882;2022-09-29T02:05:41;11.15;;;4.45;;
70715;SDS011;59053;50.832;12.882;2022-09-29T02:08:12;11.03;;;4.20;;
70715;SDS011;59053;50.832;12.882;2022-09-29T02:10:40;10.85;;;4.20;;
70715;SDS011;59053;50.832;12.882;2022-09-29T02:13:06;9.43;;;4.03;;
70715;SDS011;59053;50.832;12.882;2022-09-29T02:15:33;12.35;;;4.07;;
70715;SDS011;59053;50.832;12.882;2022-09-29T02:18:09;10.48;;;4.10;;
70715;SDS011;59053;50.832;12.882;2022-09-29T02:20:37;9.67;;;4.07;;
70715;SDS011;59053;50.832;12.882;2022-09-29T02:23:02;11.87;;;3.97;;
70715;SDS011;59053;50.832;12.882;2022-09-29T02:25:27;10.23;;;3.55;;
70715;SDS011;59053;50.832;12.882;2022-09-29T02:27:53;14.17;;;4.20;;
70715;SDS011;59053;50.832;12.882;2022-09-29T02:30:18;10.00;;;3.70;;
70715;SDS011;59053;50.832;12.882;2022-09-29T02:32:47;10.35;;;4.20;;
70715;SDS011;59053;50.832;12.882;2022-09-29T02:35:12;10.63;;;4.00;;
70715;SDS011;59053;50.832;12.882;2022-09-29T02:43:06;14.02;;;5.00;;
70715;SDS011;59053;50.832;12.882;2022-09-29T02:45:48;9.50;;;3.72;;
70715;SDS011;59053;50.832;12.882;2022-09-29T02:55:58;11.73;;;4.73;;
70715;SDS011;59053;50.832;12.882;2022-09-29T03:00:56;11.50;;;4.10;;
70715;SDS011;59053;50.832;12.882;2022-09-29T03:03:22;12.52;;;4.10;;
70715;SDS011;59053;50.832;12.882;2022-09-29T03:05:47;9.03;;;3.57;;
70715;SDS011;59053;50.832;12.882;2022-09-29T03:08:12;10.77;;;4.20;;
70715;SDS011;59053;50.832;12.882;2022-09-29T03:10:38;10.33;;;3.63;;
70715;SDS011;59053;50.832;12.882;2022-09-29T03:13:03;10.40;;;3.80;;
70715;SDS011;59053;50.832;12.882;2022-09-29T03:15:29;12.57;;;3.70;;
70715;SDS011;59053;50.832;12.882;2022-09-29T03:17:54;9.33;;;3.70;;
70715;SDS011;59053;50.832;12.882;2022-09-29T03:30:47;10.60;;;4.18;;
70715;SDS011;59053;50.832;12.882;2022-09-29T03:33:12;11.18;;;3.95;;
70715;SDS011;59053;50.832;12.882;2022-09-29T03:35:55;10.83;;;4.17;;
70715;SDS011;59053;50.832;12.882;2022-09-29T03:41:18;10.40;;;4.00;;
70715;SDS011;59053;50.832;12.882;2022-09-29T03:43:44;10.15;;;3.97;;
70715;SDS011;59053;50.832;12.882;2022-09-29T03:46:09;10.77;;;3.80;;
70715;SDS011;59053;50.832;12.882;2022-09-29T03:48:34;9.47;;;3.57;;
70715;SDS011;59053;50.832;12.882;2022-09-29T03:51:00;10.33;;;3.50;;
70715;SDS011;59053;50.832;12.882;2022-09-29T03:53:26;11.57;;;4.00;;
70715;SDS011;59053;50.832;12.882;2022-09-29T03:56:03;12.45;;;4.30;;
70715;SDS011;59053;50.832;12.882;2022-09-29T04:04:40;10.45;;;4.18;;
70715;SDS011;59053;50.832;12.882;2022-09-29T04:07:06;11.83;;;4.30;;
70715;SDS011;59053;50.832;12.882;2022-09-29T04:09:31;11.32;;;4.32;;
70715;SDS011;59053;50.832;12.882;2022-09-29T04:11:56;10.37;;;4.47;;
70715;SDS011;59053;50.832;12.882;2022-09-29T04:14:22;10.60;;;3.87;;
70715;SDS011;59053;50.832;12.882;2022-09-29T04:16:47;12.07;;;3.97;;
70715;SDS011;59053;50.832;12.882;2022-09-29T04:22:05;10.52;;;4.18;;
70715;SDS011;59053;50.832;12.882;2022-09-29T04:24:30;14.63;;;4.60;;
70715;SDS011;59053;50.832;12.882;2022-09-29T04:26:56;11.73;;;4.20;;
70715;SDS011;59053;50.832;12.882;2022-09-29T04:29:21;10.87;;;4.23;;
70715;SDS011;59053;50.832;12.882;2022-09-29T04:31:46;13.20;;;4.60;;
70715;SDS011;59053;50.832;12.882;2022-09-29T04:34:11;11.70;;;4.77;;
70715;SDS011;59053;50.832;12.882;2022-09-29T04:36:37;8.67;;;3.80;;
70715;SDS011;59053;50.832;12.882;2022-09-29T04:39:02;12.07;;;4.80;;
70715;SDS011;59053;50.832;12.882;2022-09-29T04:41:27;12.77;;;4.53;;
70715;SDS011;59053;50.832;12.882;2022-09-29T04:43:53;12.95;;;4.85;;
70715;SDS011;59053;50.832;12.882;2022-09-29T04:46:25;13.50;;;4.80;;
70715;SDS011;59053;50.832;12.882;2022-09-29T04:48:51;13.10;;;4.63;;
70715;SDS011;59053;50.832;12.882;2022-09-29T04:51:16;13.47;;;5.07;;
70715;SDS011;59053;50.832;12.882;2022-09-29T04:53:41;12.57;;;5.10;;
70715;SDS011;59053;50.832;12.882;2022-09-29T04:56:07;15.03;;;5.30;;
70715;SDS011;59053;50.832;12.882;2022-09-29T04:58:33;15.20;;;5.60;;
70715;SDS011;59053;50.832;12.882;2022-09-29T05:01:05;14.98;;;5.28;;
70715;SDS011;59053;50.832;12.882;2022-09-29T05:03:30;13.23;;;4.80;;
70715;SDS011;59053;50.832;12.882;2022-09-29T05:05:56;14.03;;;4.80;;
70715;SDS011;59053;50.832;12.882;2022-09-29T05:08:21;14.37;;;4.93;;
70715;SDS011;59053;50.832;12.882;2022-09-29T05:10:46;15.37;;;5.53;;
70715;SDS011;59053;50.832;12.882;2022-09-29T05:13:12;12.80;;;5.43;;
70715;SDS011;59053;50.832;12.882;2022-09-29T05:15:37;13.40;;;5.10;;
70715;SDS011;59053;50.832;12.882;2022-09-29T05:18:02;13.00;;;4.93;;
70715;SDS011;59053;50.832;12.882;2022-09-29T05:23:20;12.13;;;4.67;;
70715;SDS011;59053;50.832;12.882;2022-09-29T05:25:51;15.43;;;5.32;;
70715;SDS011;59053;50.832;12.882;2022-09-29T05:28:20;14.73;;;5.30;;
70715;SDS011;59053;50.832;12.882;2022-09-29T05:31:03;13.40;;;5.03;;
70715;SDS011;59053;50.832;12.882;2022-09-29T05:33:29;17.23;;;5.30;;
70715;SDS011;59053;50.832;12.882;2022-09-29T05:36:05;14.27;;;5.47;;
70715;SDS011;59053;50.832;12.882;2022-09-29T05:41:17;13.27;;;5.30;;
70715;SDS011;59053;50.832;12.882;2022-09-29T05:43:47;12.90;;;5.30;;
70715;SDS011;59053;50.832;12.882;2022-09-29T05:46:12;13.23;;;5.05;;
70715;SDS011;59053;50.832;12.882;2022-09-29T05:48:38;17.40;;;5.73;;
70715;SDS011;59053;50.832;12.882;2022-09-29T05:51:07;16.23;;;5.67;;
70715;SDS011;59053;50.832;12.882;2022-09-29T05:53:33;15.80;;;5.68;;
70715;SDS011;59053;50.832;12.882;2022-09-29T05:56:02;14.60;;;5.37;;
70715;SDS011;59053;50.832;12.882;2022-09-29T05:58:27;16.65;;;6.40;;
70715;SDS011;59053;50.832;12.882;2022-09-29T06:00:53;17.60;;;6.30;;
70715;SDS011;59053;50.832;12.882;2022-09-29T06:03:18;14.67;;;5.67;;
70715;SDS011;59053;50.832;12.882;2022-09-29T06:05:43;13.60;;;5.60;;
70715;SDS011;59053;50.832;12.882;2022-09-29T06:08:08;15.53;;;5.90;;
70715;SDS011;59053;50.832;12.882;2022-09-29T06:10:34;15.27;;;5.63;;
70715;SDS011;59053;50.832;12.882;2022-09-29T06:12:59;14.57;;;5.63;;
70715;SDS011;59053;50.832;12.882;2022-09-29T06:15:27;18.17;;;6.13;;
70715;SDS011;59053;50.832;12.882;2022-09-29T06:17:55;16.07;;;6.87;;
70715;SDS011;59053;50.832;12.882;2022-09-29T06:20:21;15.23;;;6.22;;
70715;SDS011;59053;50.832;12.882;2022-09-29T06:22:46;15.87;;;6.07;;
70715;SDS011;59053;50.832;12.882;2022-09-29T06:25:12;14.43;;;5.93;;
70715;SDS011;59053;50.832;12.882;2022-09-29T06:27:38;13.83;;;5.67;;
70715;SDS011;59053;50.832;12.882;2022-09-29T06:30:03;16.43;;;6.13;;
70715;SDS011;59053;50.832;12.882;2022-09-29T06:32:29;18.10;;;6.17;;
70715;SDS011;59053;50.832;12.882;2022-09-29T06:34:54;25.10;;;7.43;;
70715;SDS011;59053;50.832;12.882;2022-09-29T06:37:38;22.67;;;7.60;;
70715;SDS011;59053;50.832;12.882;2022-09-29T06:40:06;23.08;;;7.50;;
70715;SDS011;59053;50.832;12.882;2022-09-29T06:42:32;38.92;;;8.23;;
70715;SDS011;59053;50.832;12.882;2022-09-29T06:44:58;30.67;;;8.03;;
70715;SDS011;59053;50.832;12.882;2022-09-29T06:47:23;25.73;;;8.60;;
70715;SDS011;59053;50.832;12.882;2022-09-29T06:49:48;27.97;;;7.93;;
70715;SDS011;59053;50.832;12.882;2022-09-29T06:52:14;35.50;;;7.75;;
70715;SDS011;59053;50.832;12.882;2022-09-29T06:54:40;24.60;;;7.93;;
70715;SDS011;59053;50.832;12.882;2022-09-29T06:57:05;27.60;;;7.73;;
70715;SDS011;59053;50.832;12.882;2022-09-29T06:59:30;33.17;;;7.93;;
70715;SDS011;59053;50.832;12.882;2022-09-29T07:01:56;24.37;;;7.43;;
70715;SDS011;59053;50.832;12.882;2022-09-29T07:04:21;24.90;;;7.60;;
70715;SDS011;59053;50.832;12.882;2022-09-29T07:06:47;28.00;;;8.20;;
70715;SDS011;59053;50.832;12.882;2022-09-29T07:09:13;23.98;;;7.50;;
70715;SDS011;59053;50.832;12.882;2022-09-29T07:11:44;24.40;;;7.80;;
70715;SDS011;59053;50.832;12.882;2022-09-29T07:14:16;22.45;;;7.55;;
70715;SDS011;59053;50.832;12.882;2022-09-29T07:16:42;26.70;;;8.00;;
70715;SDS011;59053;50.832;12.882;2022-09-29T07:19:08;20.90;;;7.90;;
70715;SDS011;59053;50.832;12.882;2022-09-29T07:21:33;21.08;;;8.27;;
70715;SDS011;59053;50.832;12.882;2022-09-29T07:23:59;22.27;;;7.43;;
70715;SDS011;59053;50.832;12.882;2022-09-29T07:26:24;16.53;;;7.13;;
70715;SDS011;59053;50.832;12.882;2022-09-29T07:28:49;18.80;;;6.90;;
70715;SDS011;59053;50.832;12.882;2022-09-29T07:31:16;17.00;;;6.40;;
70715;SDS011;59053;50.832;12.882;2022-09-29T07:33:42;15.38;;;6.43;;
70715;SDS011;59053;50.832;12.882;2022-09-29T07:36:07;19.42;;;6.18;;
70715;SDS011;59053;50.832;12.882;2022-09-29T07:38:32;20.23;;;6.53;;
70715;SDS011;59053;50.832;12.882;2022-09-29T07:40:58;26.83;;;7.57;;
70715;SDS011;59053;50.832;12.882;2022-09-29T07:43:24;19.63;;;6.45;;
70715;SDS011;59053;50.832;12.882;2022-09-29T07:45:49;19.33;;;5.83;;
70715;SDS011;59053;50.832;12.882;2022-09-29T07:48:15;20.67;;;6.45;;
70715;SDS011;59053;50.832;12.882;2022-09-29T07:50:41;17.53;;;6.20;;
70715;SDS011;59053;50.832;12.882;2022-09-29T07:53:07;17.08;;;5.85;;
70715;SDS011;59053;50.832;12.882;2022-09-29T07:55:32;15.17;;;6.17;;
70715;SDS011;59053;50.832;12.882;2022-09-29T07:57:57;12.97;;;6.30;;
70715;SDS011;59053;50.832;12.882;2022-09-29T08:00:25;17.80;;;6.73;;
70715;SDS011;59053;50.832;12.882;2022-09-29T08:02:50;11.53;;;5.63;;
70715;SDS011;59053;50.832;12.882;2022-09-29T08:05:15;11.70;;;5.50;;
70715;SDS011;59053;50.832;12.882;2022-09-29T08:07:42;10.00;;;5.55;;
70715;SDS011;59053;50.832;12.882;2022-09-29T08:10:07;9.07;;;4.87;;
70715;SDS011;59053;50.832;12.882;2022-09-29T08:12:32;8.93;;;4.20;;
70715;SDS011;59053;50.832;12.882;2022-09-29T08:14:57;7.80;;;3.90;;
70715;SDS011;59053;50.832;12.882;2022-09-29T08:17:23;8.50;;;4.20;;
70715;SDS011;59053;50.832;12.882;2022-09-29T08:19:48;7.60;;;4.00;;
70715;SDS011;59053;50.832;12.882;2022-09-29T08:22:13;6.63;;;3.60;;
70715;SDS011;59053;50.832;12.882;2022-09-29T08:24:38;7.70;;;3.93;;
70715;SDS011;59053;50.832;12.882;2022-09-29T08:27:04;7.55;;;3.35;;
70715;SDS011;59053;50.832;12.882;2022-09-29T08:29:31;7.37;;;3.60;;
70715;SDS011;59053;50.832;12.882;2022-09-29T08:31:56;6.05;;;3.10;;
70715;SDS011;59053;50.832;12.882;2022-09-29T08:34:21;6.33;;;3.17;;
70715;SDS011;59053;50.832;12.882;2022-09-29T08:36:46;7.13;;;3.10;;
70715;SDS011;59053;50.832;12.882;2022-09-29T08:39:15;5.73;;;2.90;;
70715;SDS011;59053;50.832;12.882;2022-09-29T08:49:24;4.68;;;2.42;;
70715;SDS011;59053;50.832;12.882;2022-09-29T08:51:52;4.68;;;2.35;;
70715;SDS011;59053;50.832;12.882;2022-09-29T08:54:29;4.82;;;2.50;;
70715;SDS011;59053;50.832;12.882;2022-09-29T08:56:55;6.60;;;2.70;;
70715;SDS011;59053;50.832;12.882;2022-09-29T08:59:21;4.80;;;2.50;;
70715;SDS011;59053;50.832;12.882;2022-09-29T09:09:23;5.50;;;2.37;;
70715;SDS011;59053;50.832;12.882;2022-09-29T09:22:10;5.70;;;2.03;;
70715;SDS011;59053;50.832;12.882;2022-09-29T09:24:44;4.93;;;2.70;;
70715;SDS011;59053;50.832;12.882;2022-09-29T09:27:12;6.60;;;2.77;;
70715;SDS011;59053;50.832;12.882;2022-09-29T09:29:41;6.65;;;2.90;;
70715;SDS011;59053;50.832;12.882;2022-09-29T09:37:17;4.60;;;2.58;;
70715;SDS011;59053;50.832;12.882;2022-09-29T09:39:49;7.40;;;3.00;;
70715;SDS011;59053;50.832;12.882;2022-09-29T09:42:19;5.30;;;2.70;;
70715;SDS011;59053;50.832;12.882;2022-09-29T09:44:46;6.22;;;2.88;;
70715;SDS011;59053;50.832;12.882;2022-09-29T09:49:44;6.43;;;2.80;;
70715;SDS011;59053;50.832;12.882;2022-09-29T09:52:13;5.18;;;2.67;;
70715;SDS011;59053;50.832;12.882;2022-09-29T09:54:51;5.03;;;2.70;;
70715;SDS011;59053;50.832;12.882;2022-09-29T10:02:17;5.13;;;2.28;;
70715;SDS011;59053;50.832;12.882;2022-09-29T10:04:44;4.82;;;2.05;;
70715;SDS011;59053;50.832;12.882;2022-09-29T10:07:10;4.63;;;2.20;;
70715;SDS011;59053;50.832;12.882;2022-09-29T10:09:36;4.50;;;1.93;;
70715;SDS011;59053;50.832;12.882;2022-09-29T10:12:01;7.53;;;2.47;;
70715;SDS011;59053;50.832;12.882;2022-09-29T10:14:26;5.73;;;2.50;;
70715;SDS011;59053;50.832;12.882;2022-09-29T10:17:02;5.00;;;2.40;;
70715;SDS011;59053;50.832;12.882;2022-09-29T10:22:16;5.60;;;2.53;;
70715;SDS011;59053;50.832;12.882;2022-09-29T10:24:43;6.25;;;2.22;;
70715;SDS011;59053;50.832;12.882;2022-09-29T10:27:08;4.77;;;2.10;;
70715;SDS011;59053;50.832;12.882;2022-09-29T10:29:41;5.57;;;2.20;;
70715;SDS011;59053;50.832;12.882;2022-09-29T10:34:35;5.57;;;2.30;;
70715;SDS011;59053;50.832;12.882;2022-09-29T10:39:42;7.15;;;2.33;;
70715;SDS011;59053;50.832;12.882;2022-09-29T10:42:22;5.70;;;2.20;;
70715;SDS011;59053;50.832;12.882;2022-09-29T10:45:00;6.82;;;2.30;;
70715;SDS011;59053;50.832;12.882;2022-09-29T10:47:25;4.53;;;2.00;;
70715;SDS011;59053;50.832;12.882;2022-09-29T10:52:35;4.57;;;1.90;;
70715;SDS011;59053;50.832;12.882;2022-09-29T10:55:01;5.23;;;2.10;;
70715;SDS011;59053;50.832;12.882;2022-09-29T10:57:31;5.65;;;2.38;;
70715;SDS011;59053;50.832;12.882;2022-09-29T10:59:57;5.55;;;2.08;;
70715;SDS011;59053;50.832;12.882;2022-09-29T11:02:35;3.85;;;2.20;;
70715;SDS011;59053;50.832;12.882;2022-09-29T11:05:02;4.43;;;2.20;;
70715;SDS011;59053;50.832;12.882;2022-09-29T11:07:28;4.13;;;2.10;;
70715;SDS011;59053;50.832;12.882;2022-09-29T11:09:53;5.53;;;2.33;;
70715;SDS011;59053;50.832;12.882;2022-09-29T11:14:50;3.42;;;1.90;;
70715;SDS011;59053;50.832;12.882;2022-09-29T11:17:30;4.65;;;1.90;;
70715;SDS011;59053;50.832;12.882;2022-09-29T11:19:57;4.45;;;2.20;;
70715;SDS011;59053;50.832;12.882;2022-09-29T11:27:49;3.47;;;1.30;;
70715;SDS011;59053;50.832;12.882;2022-09-29T11:30:18;4.72;;;1.33;;
70715;SDS011;59053;50.832;12.882;2022-09-29T11:40:32;4.60;;;1.33;;
70715;SDS011;59053;50.832;12.882;2022-09-29T12:04:07;5.20;;;1.70;;
70715;SDS011;59053;50.832;12.882;2022-09-29T12:06:40;3.03;;;1.50;;
70715;SDS011;59053;50.832;12.882;2022-09-29T12:17:00;2.35;;;1.40;;
70715;SDS011;59053;50.832;12.882;2022-09-29T12:19:26;3.08;;;1.60;;
70715;SDS011;59053;50.832;12.882;2022-09-29T12:21:54;5.43;;;1.40;;
70715;SDS011;59053;50.832;12.882;2022-09-29T12:24:31;3.72;;;1.60;;
70715;SDS011;59053;50.832;12.882;2022-09-29T12:26:58;3.10;;;1.73;;
70715;SDS011;59053;50.832;12.882;2022-09-29T12:29:42;5.05;;;1.58;;
70715;SDS011;59053;50.832;12.882;2022-09-29T12:32:12;4.07;;;1.50;;
70715;SDS011;59053;50.832;12.882;2022-09-29T12:34:44;4.00;;;1.60;;
70715;SDS011;59053;50.832;12.882;2022-09-29T12:50:21;2.27;;;1.30;;
70715;SDS011;59053;50.832;12.882;2022-09-29T12:52:51;3.17;;;1.50;;
70715;SDS011;59053;50.832;12.882;2022-09-29T12:55:25;3.30;;;1.30;;
70715;SDS011;59053;50.832;12.882;2022-09-29T12:57:52;3.90;;;1.40;;
70715;SDS011;59053;50.832;12.882;2022-09-29T13:00:22;3.40;;;1.23;;
70715;SDS011;59053;50.832;12.882;2022-09-29T13:16:09;3.47;;;1.30;;
70715;SDS011;59053;50.832;12.882;2022-09-29T13:21:17;3.05;;;1.40;;
70715;SDS011;59053;50.832;12.882;2022-09-29T13:23:46;5.00;;;1.80;;
70715;SDS011;59053;50.832;12.882;2022-09-29T13:28:47;3.13;;;1.40;;
70715;SDS011;59053;50.832;12.882;2022-09-29T13:31:14;4.40;;;1.60;;
70715;SDS011;59053;50.832;12.882;2022-09-29T13:33:44;4.85;;;1.95;;
70715;SDS011;59053;50.832;12.882;2022-09-29T13:36:12;3.78;;;1.80;;
70715;SDS011;59053;50.832;12.882;2022-09-29T13:38:51;5.75;;;1.80;;
70715;SDS011;59053;50.832;12.882;2022-09-29T13:54:52;3.43;;;1.90;;
70715;SDS011;59053;50.832;12.882;2022-09-29T13:57:22;5.18;;;2.03;;
70715;SDS011;59053;50.832;12.882;2022-09-29T14:04:54;6.07;;;2.00;;
70715;SDS011;59053;50.832;12.882;2022-09-29T14:16:42;3.77;;;1.83;;
70715;SDS011;59053;50.832;12.882;2022-09-29T14:19:21;4.60;;;2.00;;
70715;SDS011;59053;50.832;12.882;2022-09-29T14:21:55;5.32;;;2.10;;
70715;SDS011;59053;50.832;12.882;2022-09-29T14:29:50;17.03;;;9.67;;
70715;SDS011;59053;50.832;12.882;2022-09-29T14:32:18;5.88;;;3.10;;
70715;SDS011;59053;50.832;12.882;2022-09-29T14:34:44;7.13;;;2.72;;
70715;SDS011;59053;50.832;12.882;2022-09-29T14:37:17;6.90;;;2.73;;
70715;SDS011;59053;50.832;12.882;2022-09-29T14:39:44;6.83;;;3.40;;
70715;SDS011;59053;50.832;12.882;2022-09-29T14:42:31;8.55;;;3.75;;
70715;SDS011;59053;50.832;12.882;2022-09-29T14:44:56;6.57;;;3.38;;
70715;SDS011;59053;50.832;12.882;2022-09-29T14:47:45;8.02;;;3.50;;
70715;SDS011;59053;50.832;12.882;2022-09-29T14:51:14;9.98;;;3.40;;
70715;SDS011;59053;50.832;12.882;2022-09-29T14:53:59;6.77;;;2.57;;
70715;SDS011;59053;50.832;12.882;2022-09-29T15:02:40;6.73;;;2.63;;
70715;SDS011;59053;50.832;12.882;2022-09-29T15:05:39;9.35;;;3.42;;
70715;SDS011;59053;50.832;12.882;2022-09-29T15:07:58;10.95;;;3.20;;
70715;SDS011;59053;50.832;12.882;2022-09-29T15:10:25;6.77;;;3.00;;
70715;SDS011;59053;50.832;12.882;2022-09-29T15:13:13;7.53;;;2.90;;
70715;SDS011;59053;50.832;12.882;2022-09-29T15:15:36;8.00;;;2.95;;
70715;SDS011;59053;50.832;12.882;2022-09-29T15:18:40;5.17;;;2.40;;
70715;SDS011;59053;50.832;12.882;2022-09-29T15:20:55;5.40;;;2.50;;
70715;SDS011;59053;50.832;12.882;2022-09-29T15:23:35;5.57;;;2.30;;
70715;SDS011;59053;50.832;12.882;2022-09-29T15:26:04;6.50;;;2.60;;
70715;SDS011;59053;50.832;12.882;2022-09-29T15:28:31;5.07;;;2.20;;
70715;SDS011;59053;50.832;12.882;2022-09-29T15:30:58;4.00;;;2.17;;
70715;SDS011;59053;50.832;12.882;2022-09-29T15:36:34;5.38;;;2.90;;
70715;SDS011;59053;50.832;12.882;2022-09-29T15:39:01;7.45;;;2.95;;
70715;SDS011;59053;50.832;12.882;2022-09-29T15:44:32;5.85;;;3.10;;
70715;SDS011;59053;50.832;12.882;2022-09-29T15:46:58;6.40;;;3.10;;
70715;SDS011;59053;50.832;12.882;2022-09-29T15:55:27;4.30;;;2.40;;
70715;SDS011;59053;50.832;12.882;2022-09-29T16:00:46;6.30;;;2.70;;
70715;SDS011;59053;50.832;12.882;2022-09-29T16:06:01;7.03;;;2.40;;
70715;SDS011;59053;50.832;12.882;2022-09-29T16:08:28;5.03;;;2.80;;
70715;SDS011;59053;50.832;12.882;2022-09-29T16:11:13;9.75;;;3.80;;
70715;SDS011;59053;50.832;12.882;2022-09-29T16:13:52;15.25;;;4.75;;
70715;SDS011;59053;50.832;12.882;2022-09-29T16:16:23;16.42;;;7.55;;
70715;SDS011;59053;50.832;12.882;2022-09-29T16:18:50;14.63;;;6.70;;
70715;SDS011;59053;50.832;12.882;2022-09-29T16:21:23;14.20;;;5.28;;
70715;SDS011;59053;50.832;12.882;2022-09-29T16:23:50;9.60;;;4.35;;
70715;SDS011;59053;50.832;12.882;2022-09-29T16:26:17;8.85;;;4.20;;
70715;SDS011;59053;50.832;12.882;2022-09-29T16:29:43;10.52;;;4.75;;
70715;SDS011;59053;50.832;12.882;2022-09-29T16:31:39;10.33;;;3.90;;
70715;SDS011;59053;50.832;12.882;2022-09-29T16:34:20;9.30;;;4.10;;
70715;SDS011;59053;50.832;12.882;2022-09-29T16:36:46;8.80;;;3.92;;
70715;SDS011;59053;50.832;12.882;2022-09-29T16:39:13;8.65;;;4.03;;
70715;SDS011;59053;50.832;12.882;2022-09-29T16:41:39;7.97;;;3.88;;
70715;SDS011;59053;50.832;12.882;2022-09-29T16:46:48;17.08;;;7.40;;
70715;SDS011;59053;50.832;12.882;2022-09-29T16:49:14;15.32;;;5.05;;
70715;SDS011;59053;50.832;12.882;2022-09-29T16:51:41;9.60;;;4.07;;
70715;SDS011;59053;50.832;12.882;2022-09-29T16:54:08;11.05;;;4.32;;
70715;SDS011;59053;50.832;12.882;2022-09-29T16:56:37;9.97;;;4.57;;
70715;SDS011;59053;50.832;12.882;2022-09-29T16:59:37;32.33;;;13.95;;
70715;SDS011;59053;50.832;12.882;2022-09-29T17:01:55;44.45;;;17.88;;
70715;SDS011;59053;50.832;12.882;2022-09-29T17:04:20;42.80;;;17.93;;
70715;SDS011;59053;50.832;12.882;2022-09-29T17:06:47;36.53;;;15.60;;
70715;SDS011;59053;50.832;12.882;2022-09-29T17:09:17;36.65;;;15.25;;
70715;SDS011;59053;50.832;12.882;2022-09-29T17:11:43;26.10;;;12.05;;
70715;SDS011;59053;50.832;12.882;2022-09-29T17:14:10;27.37;;;14.07;;
70715;SDS011;59053;50.832;12.882;2022-09-29T17:16:37;12.93;;;7.05;;
70715;SDS011;59053;50.832;12.882;2022-09-29T17:19:04;14.82;;;6.05;;
70715;SDS011;59053;50.832;12.882;2022-09-29T17:21:30;11.37;;;5.40;;
70715;SDS011;59053;50.832;12.882;2022-09-29T17:23:55;8.33;;;4.10;;
70715;SDS011;59053;50.832;12.882;2022-09-29T17:26:25;7.63;;;3.43;;
70715;SDS011;59053;50.832;12.882;2022-09-29T17:29:13;10.98;;;4.88;;
70715;SDS011;59053;50.832;12.882;2022-09-29T17:31:39;22.93;;;11.20;;
70715;SDS011;59053;50.832;12.882;2022-09-29T17:34:04;39.13;;;17.67;;
70715;SDS011;59053;50.832;12.882;2022-09-29T17:36:31;35.83;;;15.73;;
70715;SDS011;59053;50.832;12.882;2022-09-29T17:38:56;26.80;;;13.47;;
70715;SDS011;59053;50.832;12.882;2022-09-29T17:41:21;17.07;;;7.00;;
70715;SDS011;59053;50.832;12.882;2022-09-29T17:43:47;27.20;;;13.07;;
70715;SDS011;59053;50.832;12.882;2022-09-29T17:46:15;25.23;;;11.87;;
70715;SDS011;59053;50.832;12.882;2022-09-29T17:48:40;20.00;;;8.88;;
70715;SDS011;59053;50.832;12.882;2022-09-29T17:51:15;11.63;;;4.75;;
70715;SDS011;59053;50.832;12.882;2022-09-29T17:53:45;12.35;;;4.32;;
70715;SDS011;59053;50.832;12.882;2022-09-29T17:59:25;10.90;;;4.90;;
70715;SDS011;59053;50.832;12.882;2022-09-29T18:01:51;12.38;;;5.72;;
70715;SDS011;59053;50.832;12.882;2022-09-29T18:04:21;12.80;;;5.03;;
70715;SDS011;59053;50.832;12.882;2022-09-29T18:06:49;12.80;;;6.38;;
70715;SDS011;59053;50.832;12.882;2022-09-29T18:09:14;11.17;;;5.70;;
70715;SDS011;59053;50.832;12.882;2022-09-29T18:11:43;14.93;;;5.70;;
70715;SDS011;59053;50.832;12.882;2022-09-29T18:14:09;13.70;;;5.93;;
70715;SDS011;59053;50.832;12.882;2022-09-29T18:16:34;15.70;;;7.88;;
70715;SDS011;59053;50.832;12.882;2022-09-29T18:19:01;15.47;;;7.07;;
70715;SDS011;59053;50.832;12.882;2022-09-29T18:21:26;15.25;;;7.38;;
70715;SDS011;59053;50.832;12.882;2022-09-29T18:23:53;13.70;;;7.35;;
70715;SDS011;59053;50.832;12.882;2022-09-29T18:26:18;12.73;;;6.90;;
70715;SDS011;59053;50.832;12.882;2022-09-29T18:28:45;13.82;;;7.10;;
70715;SDS011;59053;50.832;12.882;2022-09-29T18:31:23;16.87;;;6.57;;
70715;SDS011;59053;50.832;12.882;2022-09-29T18:33:49;16.85;;;7.00;;
70715;SDS011;59053;50.832;12.882;2022-09-29T18:36:14;18.03;;;7.20;;
70715;SDS011;59053;50.832;12.882;2022-09-29T18:38:39;18.97;;;8.80;;
70715;SDS011;59053;50.832;12.882;2022-09-29T18:41:05;11.33;;;6.03;;
70715;SDS011;59053;50.832;12.882;2022-09-29T18:43:30;19.98;;;8.10;;
70715;SDS011;59053;50.832;12.882;2022-09-29T18:45:55;20.87;;;8.97;;
70715;SDS011;59053;50.832;12.882;2022-09-29T18:48:23;16.20;;;8.00;;
70715;SDS011;59053;50.832;12.882;2022-09-29T18:50:49;17.38;;;7.70;;
70715;SDS011;59053;50.832;12.882;2022-09-29T18:53:21;17.42;;;7.78;;
70715;SDS011;59053;50.832;12.882;2022-09-29T18:55:47;15.88;;;7.63;;